Pana, IL (62557)

2:35 AM CST on December 18, 2014 (GMT -0600)
APRSWXNET Pana IL US | Change Station
CLOSE
Current Station
Personal Weather Station
Location: Pana, IL
Elevation: 700 ft
Nearby Weather Stations

Elev 700 ft 39.39 °N, 89.09 °W | Updated 30 minutes ago

Clear
Clear
25.0 °F
Feels Like 25.0 °F
N
0.0
Wind Variable Wind from East
Gusts 2.0 mph

Today
High -- | Low -- °F
--% Chance of Precip.
Yesterday
High -- | Low -- °F
Precip. -- in
7:11 AM 4:34 PM
Waning Crescent, 16% visible
Pressure 30.30 in
Visibility 7.0 miles
Clouds Clear
Dew Point 22.0 °F
Humidity 88%
Rainfall 0.00 in
Snow Depth Not available.
UV 0 out of 12
Pollen .10 out of 12
Air Quality Not available.
Flu Activity Not available.
METAR KTAZ 180815Z AUTO 00000KT 7SM CLR M05/M06 A3030 RMK AO2

More Conditions Fewer Conditions

Pressure 30.30 in
Visibility 7.0 miles
Clouds Clear
Dew Point 22.0 °F
Humidity 88%
Rainfall 0.00 in
Snow Depth Not available.
UV 0 out of 12
Pollen .10 out of 12
Air Quality Not available.
Flu Activity Not available.
METAR KTAZ 180815Z AUTO 00000KT 7SM CLR M05/M06 A3030 RMK AO2

More Conditions Fewer Conditions

10-Day Weather Forecast

Almanac

Astronomy

Dec. 18, 2014 Rise Set
Actual Time
Civil Twilight
Nautical Twilight
Astronomical Twilight
Moon
Length of Visible Light
Length of Day
Tomorrow will be .
, % of the Moon is Illuminated

Today's Extremes

State Highs State Lows

Community

WunderPhotos

Upload Photos

1,778,907 photos uploaded!

WunderBlogs® & News

Nearby

Air Quality

  Air Quality AQ Index Pollutant
Not available.

Snow Depth

Station Depth Elevation

Earthquake Activity

City Distance Mag. Time & Date
Minimum magnitude displayed is 2.5.

Coastal Water Temperatures

Place Temperature

Nearby Weather Stations